Time;durP1;ratioP1;P1;durP2;ratioP2;P2;SDS_P1;SDS_P2;PMS_P1;PMS_P2;Temp;Humidity;BMP_temperature;BMP_pressure;BME280_temperature;BME280_humidity;BME280_pressure;Samples;Min_cycle;Max_cycle;Signal;HPM_P1;HPM_P2
2022/05/05 00:01:56;;;;;;;35.10;12.33;;;14.30;32.10;;;;;;5075489;28;20479;-60
2022/05/05 00:04:25;;;;;;;34.50;11.40;;;14.20;32.30;;;;;;5076649;28;20460;-61
2022/05/05 00:06:52;;;;;;;35.50;12.03;;;14.20;32.30;;;;;;5075326;28;20461;-59
2022/05/05 00:09:18;;;;;;;32.67;10.97;;;14.10;32.30;;;;;;5078222;28;20476;-61
2022/05/05 00:14:31;;;;;;;33.70;11.63;;;14.00;33.00;;;;;;5069283;28;20561;-60
2022/05/05 00:17:00;;;;;;;35.07;11.50;;;13.90;33.20;;;;;;5083749;28;20461;-60
2022/05/05 00:19:29;;;;;;;33.30;11.50;;;13.90;33.60;;;;;;5080906;28;20476;-60
2022/05/05 00:21:57;;;;;;;31.70;9.47;;;13.80;33.50;;;;;;5074968;28;20507;-61
2022/05/05 00:24:24;;;;;;;32.20;10.43;;;13.80;33.90;;;;;;5075531;28;20472;-61
2022/05/05 00:26:51;;;;;;;32.50;9.93;;;13.70;34.20;;;;;;5069285;28;20465;-61
2022/05/05 00:29:17;;;;;;;36.27;10.00;;;13.70;34.40;;;;;;5080945;28;20486;-61
2022/05/05 00:31:45;;;;;;;31.37;9.57;;;13.60;34.70;;;;;;5081066;28;20998;-61
2022/05/05 00:34:11;;;;;;;31.13;10.00;;;13.60;34.80;;;;;;5072969;28;20536;-61
2022/05/05 00:36:40;;;;;;;35.33;11.37;;;13.50;35.40;;;;;;5071541;28;20542;-58
2022/05/05 00:39:08;;;;;;;32.13;10.77;;;13.40;35.50;;;;;;5076211;28;20485;-60
2022/05/05 00:41:36;;;;;;;34.50;10.50;;;13.30;35.80;;;;;;5077895;28;20465;-60
2022/05/05 00:44:04;;;;;;;32.87;10.07;;;13.30;36.10;;;;;;5072276;28;20910;-61
2022/05/05 00:46:31;;;;;;;35.23;11.20;;;13.30;36.00;;;;;;5078005;28;20945;-61
2022/05/05 00:48:58;;;;;;;32.37;10.83;;;13.20;36.50;;;;;;5083995;28;20487;-61
2022/05/05 00:51:25;;;;;;;33.30;10.33;;;13.20;36.10;;;;;;5078215;28;20475;-61
2022/05/05 00:53:54;;;;;;;33.60;10.20;;;13.20;36.00;;;;;;5073289;28;20461;-61
2022/05/05 00:56:22;;;;;;;34.20;9.67;;;13.20;35.80;;;;;;5078089;28;20543;-59
2022/05/05 00:58:49;;;;;;;34.47;10.53;;;13.10;35.70;;;;;;5070125;28;20485;-61
2022/05/05 01:01:19;;;;;;;33.93;9.93;;;13.10;35.50;;;;;;5070148;28;20461;-61
2022/05/05 01:03:46;;;;;;;36.23;9.90;;;13.00;35.40;;;;;;5079063;28;20465;-61
2022/05/05 01:06:14;;;;;;;33.30;10.20;;;12.90;35.10;;;;;;5075290;28;20457;-60
2022/05/05 01:08:41;;;;;;;34.10;10.30;;;12.80;35.10;;;;;;5072473;28;20510;-60
2022/05/05 01:11:10;;;;;;;35.10;10.50;;;12.80;35.10;;;;;;5075984;28;20507;-61
2022/05/05 01:13:39;;;;;;;35.00;10.97;;;12.70;35.40;;;;;;5069684;28;20457;-62
2022/05/05 01:16:07;;;;;;;34.70;10.80;;;12.60;35.40;;;;;;5076561;28;20464;-61
2022/05/05 01:18:34;;;;;;;39.40;11.53;;;12.60;35.30;;;;;;5077502;28;20532;-61
2022/05/05 01:21:00;;;;;;;35.87;11.33;;;12.50;35.70;;;;;;5076214;28;20457;-60
2022/05/05 01:23:28;;;;;;;34.47;11.80;;;12.50;36.20;;;;;;5076489;28;20978;-61
2022/05/05 01:28:43;;;;;;;36.53;11.50;;;12.50;36.90;;;;;;5070579;28;21322;-60
2022/05/05 01:31:09;;;;;;;35.97;11.93;;;12.50;37.80;;;;;;5073141;28;21050;-61
2022/05/05 01:33:37;;;;;;;35.60;11.87;;;12.50;39.00;;;;;;5070811;28;20461;-60
2022/05/05 01:36:05;;;;;;;35.00;12.40;;;12.50;38.70;;;;;;5078322;28;20467;-62
2022/05/05 01:38:37;;;;;;;37.60;13.80;;;12.50;38.60;;;;;;5080542;28;20459;-60
2022/05/05 01:41:05;;;;;;;36.67;12.67;;;12.40;37.80;;;;;;5080682;28;20793;-60
2022/05/05 01:43:31;;;;;;;36.57;12.90;;;12.40;37.90;;;;;;5074481;28;20510;-60
2022/05/05 01:45:58;;;;;;;35.47;12.10;;;12.40;38.10;;;;;;5073777;28;20467;-63
2022/05/05 01:48:25;;;;;;;38.10;14.10;;;12.30;38.00;;;;;;5071594;28;20456;-60
2022/05/05 01:50:51;;;;;;;37.33;12.83;;;12.30;38.00;;;;;;5072491;28;21027;-60
2022/05/05 01:53:18;;;;;;;37.93;12.67;;;12.30;38.20;;;;;;5080547;28;20467;-64
2022/05/05 01:55:46;;;;;;;36.97;12.53;;;12.30;37.80;;;;;;5077197;28;20467;-61
2022/05/05 01:58:13;;;;;;;36.53;12.27;;;12.20;37.50;;;;;;5068838;28;20470;-60
2022/05/05 02:00:40;;;;;;;37.10;13.17;;;12.20;37.70;;;;;;5079580;28;20465;-60
2022/05/05 02:03:12;;;;;;;37.23;12.87;;;12.20;37.70;;;;;;5073041;28;20467;-61
2022/05/05 02:05:40;;;;;;;35.00;11.80;;;12.20;37.80;;;;;;5071129;28;20767;-61
2022/05/05 02:08:07;;;;;;;37.70;12.73;;;12.20;37.40;;;;;;5081345;28;20460;-61
2022/05/05 02:10:34;;;;;;;38.00;11.80;;;12.10;37.30;;;;;;5077907;28;20484;-61
2022/05/05 02:13:02;;;;;;;37.60;12.43;;;12.10;37.50;;;;;;5083013;28;20459;-61
2022/05/05 02:15:29;;;;;;;38.50;12.60;;;12.20;37.50;;;;;;5083303;28;20464;-61
2022/05/05 02:17:56;;;;;;;37.83;12.93;;;12.20;37.50;;;;;;5081415;28;20464;-60
2022/05/05 02:20:23;;;;;;;34.63;11.90;;;12.20;37.70;;;;;;5070094;28;20473;-61
2022/05/05 02:22:50;;;;;;;38.17;11.93;;;12.30;38.10;;;;;;5071975;28;20452;-61
2022/05/05 02:25:16;;;;;;;37.50;12.37;;;12.30;37.80;;;;;;5084824;28;20962;-61
2022/05/05 02:27:50;;;;;;;34.33;11.30;;;12.30;37.80;;;;;;5087296;28;20467;-61
2022/05/05 02:30:19;;;;;;;36.77;11.80;;;12.30;38.20;;;;;;5076600;28;20473;-61
2022/05/05 02:32:46;;;;;;;37.23;12.27;;;12.30;38.00;;;;;;5078152;28;20484;-60
2022/05/05 02:35:12;;;;;;;37.07;11.70;;;12.30;38.20;;;;;;5077266;28;20473;-63
2022/05/05 02:40:24;;;;;;;37.23;11.90;;;12.30;38.10;;;;;;5075965;28;20470;-62
2022/05/05 02:42:51;;;;;;;37.87;12.20;;;12.30;38.50;;;;;;5081430;28;20452;-61
2022/05/05 02:45:19;;;;;;;38.63;11.13;;;12.30;38.80;;;;;;5080093;28;20453;-61
2022/05/05 02:47:47;;;;;;;36.90;11.50;;;12.30;38.50;;;;;;5082745;28;20985;-62
2022/05/05 02:50:14;;;;;;;39.33;12.37;;;12.30;38.20;;;;;;5074945;28;21258;-60
2022/05/05 02:52:41;;;;;;;35.50;11.70;;;12.40;38.30;;;;;;5073833;28;20484;-59
2022/05/05 02:55:07;;;;;;;35.30;11.53;;;12.40;38.30;;;;;;5075803;28;21023;-62
2022/05/05 02:57:35;;;;;;;38.17;12.67;;;12.40;38.10;;;;;;5073119;28;20828;-61
2022/05/05 03:00:02;;;;;;;35.77;12.03;;;12.40;38.40;;;;;;5080256;28;20484;-60
2022/05/05 03:02:31;;;;;;;37.47;13.60;;;12.40;38.10;;;;;;5077742;28;20476;-61
2022/05/05 03:04:59;;;;;;;40.57;13.37;;;12.50;39.10;;;;;;5081127;28;20465;-60
2022/05/05 03:07:25;;;;;;;35.90;13.33;;;12.50;39.60;;;;;;5075148;28;20472;-61
2022/05/05 03:09:52;;;;;;;35.70;12.27;;;12.50;39.20;;;;;;5072785;28;20484;-60
2022/05/05 03:12:19;;;;;;;36.30;12.70;;;12.50;39.40;;;;;;5073068;28;20991;-61
2022/05/05 03:14:47;;;;;;;37.23;12.37;;;12.50;39.20;;;;;;5077474;28;20453;-62
2022/05/05 03:17:14;;;;;;;36.00;12.60;;;12.50;38.90;;;;;;5073701;28;20468;-60
2022/05/05 03:19:42;;;;;;;37.00;12.43;;;12.50;38.80;;;;;;5075894;28;20476;-61
2022/05/05 03:22:09;;;;;;;38.13;12.60;;;12.60;39.00;;;;;;5079297;28;20455;-60
2022/05/05 03:24:36;;;;;;;37.53;13.10;;;12.60;39.00;;;;;;5069043;28;20449;-60
2022/05/05 03:27:04;;;;;;;37.73;12.37;;;12.50;38.80;;;;;;5075194;28;20453;-60
2022/05/05 03:29:32;;;;;;;35.77;12.00;;;12.60;38.80;;;;;;5080932;28;21016;-61
2022/05/05 03:31:59;;;;;;;36.77;11.70;;;12.50;38.40;;;;;;5085347;28;20476;-61
2022/05/05 03:34:26;;;;;;;37.67;12.80;;;12.50;38.10;;;;;;5080185;28;20468;-61
2022/05/05 03:36:54;;;;;;;38.13;13.37;;;12.50;37.80;;;;;;5081414;28;20851;-60
2022/05/05 03:39:20;;;;;;;36.17;12.77;;;12.50;38.00;;;;;;5076406;28;21018;-62
2022/05/05 03:41:47;;;;;;;37.00;12.97;;;12.50;38.30;;;;;;5086636;28;20460;-61
2022/05/05 03:44:14;;;;;;;38.53;13.80;;;12.50;38.30;;;;;;5080190;28;20464;-61
2022/05/05 03:46:41;;;;;;;38.80;15.57;;;12.50;38.60;;;;;;5082818;28;21211;-60
2022/05/05 03:49:07;;;;;;;38.40;13.67;;;12.50;38.90;;;;;;5080239;28;20477;-60
2022/05/05 03:51:34;;;;;;;39.40;13.20;;;12.50;39.00;;;;;;5081342;28;20584;-62
2022/05/05 03:54:02;;;;;;;38.30;14.50;;;12.50;38.70;;;;;;5075478;28;20457;-61
2022/05/05 03:56:29;;;;;;;37.53;12.37;;;12.40;38.50;;;;;;5083692;28;20464;-60
2022/05/05 03:58:56;;;;;;;38.20;12.87;;;12.40;38.60;;;;;;5075173;28;20472;-61
2022/05/05 04:01:22;;;;;;;36.43;13.50;;;12.40;38.40;;;;;;5075775;28;20472;-60
2022/05/05 04:03:49;;;;;;;38.97;13.00;;;12.40;38.50;;;;;;5092239;28;20462;-61
2022/05/05 04:06:17;;;;;;;35.20;11.70;;;12.40;38.50;;;;;;5077315;28;20473;-64
2022/05/05 04:08:43;;;;;;;40.20;13.20;;;12.40;38.20;;;;;;5075864;28;20582;-60
2022/05/05 04:11:12;;;;;;;40.87;14.10;;;12.40;38.00;;;;;;5074673;28;20464;-60
2022/05/05 04:13:39;;;;;;;37.33;12.10;;;12.30;38.10;;;;;;5077681;28;20890;-60
2022/05/05 04:16:06;;;;;;;35.30;12.30;;;12.30;37.90;;;;;;5073190;28;20496;-58
2022/05/05 04:18:33;;;;;;;37.80;13.60;;;12.30;37.90;;;;;;5074053;28;20472;-58
2022/05/05 04:21:00;;;;;;;37.77;14.00;;;12.20;38.00;;;;;;5073347;28;20476;-60
2022/05/05 04:23:27;;;;;;;36.73;13.90;;;12.20;38.00;;;;;;5075861;28;20468;-60
2022/05/05 04:25:53;;;;;;;37.90;14.90;;;12.30;38.20;;;;;;5072142;28;20484;-58
2022/05/05 04:28:22;;;;;;;40.50;14.83;;;12.30;38.20;;;;;;5078052;28;20460;-60
2022/05/05 04:30:49;;;;;;;39.47;15.63;;;12.30;38.20;;;;;;5069772;28;20465;-61
2022/05/05 04:33:16;;;;;;;39.23;14.83;;;12.30;38.30;;;;;;5075930;28;20777;-62
2022/05/05 04:35:44;;;;;;;41.60;15.20;;;12.30;38.40;;;;;;5078898;28;20498;-59
2022/05/05 04:38:11;;;;;;;38.50;13.40;;;12.30;38.40;;;;;;5076056;28;20467;-59
2022/05/05 04:40:38;;;;;;;38.73;13.63;;;12.40;38.20;;;;;;5073031;28;20480;-60
2022/05/05 04:43:05;;;;;;;38.00;14.40;;;12.40;38.30;;;;;;5072600;28;20460;-60
2022/05/05 04:45:33;;;;;;;37.50;13.57;;;12.50;38.30;;;;;;5073931;28;20464;-58
2022/05/05 04:48:00;;;;;;;37.47;14.27;;;12.60;38.30;;;;;;5070286;28;20464;-59
2022/05/05 04:50:26;;;;;;;38.60;13.77;;;12.70;38.20;;;;;;5074393;28;20503;-58
2022/05/05 04:52:53;;;;;;;41.57;14.60;;;12.80;38.00;;;;;;5081611;28;20863;-60
2022/05/05 04:55:20;;;;;;;42.90;16.00;;;12.90;37.90;;;;;;5077632;28;20962;-62
2022/05/05 04:57:47;;;;;;;40.47;14.80;;;13.00;37.80;;;;;;5072432;28;20841;-65
2022/05/05 05:00:14;;;;;;;36.57;13.77;;;13.20;37.90;;;;;;5076296;28;21044;-63
2022/05/05 05:02:42;;;;;;;38.33;12.73;;;13.40;37.70;;;;;;5074134;28;20464;-65
2022/05/05 05:05:09;;;;;;;37.50;13.63;;;13.90;37.40;;;;;;5070850;28;20480;-65
2022/05/05 05:07:36;;;;;;;36.90;12.53;;;14.70;35.80;;;;;;5073003;28;20488;-63
2022/05/05 05:10:03;;;;;;;40.37;13.03;;;15.20;33.60;;;;;;5076309;28;20492;-65
2022/05/05 05:12:30;;;;;;;34.90;11.80;;;15.50;33.00;;;;;;5078185;28;21030;-63
2022/05/05 05:14:57;;;;;;;35.97;11.77;;;16.00;30.90;;;;;;5079525;28;20460;-62
2022/05/05 05:17:23;;;;;;;35.40;12.50;;;16.40;29.60;;;;;;5078351;28;20843;-62
2022/05/05 05:19:52;;;;;;;34.63;12.23;;;17.60;27.40;;;;;;5072200;28;20491;-62
2022/05/05 05:22:18;;;;;;;34.93;12.03;;;18.70;23.60;;;;;;5071132;28;20452;-64
2022/05/05 05:24:45;;;;;;;35.00;11.87;;;18.70;22.40;;;;;;5073375;28;20468;-61
2022/05/05 05:27:12;;;;;;;34.57;11.40;;;19.40;22.00;;;;;;5073490;28;20460;-64
2022/05/05 05:29:39;;;;;;;32.87;11.00;;;20.70;18.90;;;;;;5071789;28;20515;-63
2022/05/05 05:32:06;;;;;;;33.87;11.17;;;22.20;16.90;;;;;;5075539;28;21008;-64
2022/05/05 05:34:33;;;;;;;33.20;9.67;;;23.70;14.60;;;;;;5081033;28;20458;-62
2022/05/05 05:37:03;;;;;;;34.70;9.60;;;24.60;12.70;;;;;;5076472;28;21166;-63
2022/05/05 05:39:30;;;;;;;31.80;9.60;;;25.60;10.50;;;;;;5068275;28;20501;-64
2022/05/05 05:41:57;;;;;;;30.83;10.27;;;26.40;9.20;;;;;;5072084;28;20464;-62
2022/05/05 05:44:23;;;;;;;31.83;10.33;;;27.40;7.30;;;;;;5073657;28;20464;-63
2022/05/05 05:46:50;;;;;;;30.63;9.87;;;28.20;6.00;;;;;;5072387;28;20475;-63
2022/05/05 05:49:17;;;;;;;30.93;9.00;;;28.30;4.70;;;;;;5072836;28;21010;-65
2022/05/05 05:51:44;;;;;;;30.63;9.73;;;27.30;5.50;;;;;;5078293;28;20479;-64
2022/05/05 05:54:12;;;;;;;30.80;9.77;;;26.30;6.50;;;;;;5079623;28;20461;-63
2022/05/05 05:56:40;;;;;;;30.10;9.37;;;25.70;7.80;;;;;;5079096;28;20863;-64
2022/05/05 05:59:06;;;;;;;33.23;11.37;;;25.60;8.20;;;;;;5081227;28;20519;-64
2022/05/05 06:04:17;;;;;;;33.43;12.03;;;24.20;9.80;;;;;;5075468;28;20952;-61
2022/05/05 06:06:44;;;;;;;36.50;12.20;;;23.30;10.90;;;;;;5075148;28;20468;-63
2022/05/05 06:09:13;;;;;;;32.57;11.47;;;22.60;12.20;;;;;;5072581;28;20570;-62
2022/05/05 06:11:40;;;;;;;33.43;11.33;;;22.00;13.30;;;;;;5074384;28;20543;-63
2022/05/05 06:14:07;;;;;;;34.17;11.80;;;21.40;14.30;;;;;;5079143;28;20517;-63
2022/05/05 06:16:34;;;;;;;33.67;12.33;;;21.00;15.10;;;;;;5076080;28;20488;-61
2022/05/05 06:19:00;;;;;;;34.63;13.37;;;20.50;15.90;;;;;;5071584;28;20859;-62
2022/05/05 06:21:27;;;;;;;36.43;13.47;;;20.10;16.70;;;;;;5073676;28;20464;-62
2022/05/05 06:23:54;;;;;;;35.37;13.40;;;19.70;17.40;;;;;;5075627;28;20462;-61
2022/05/05 06:26:23;;;;;;;38.57;14.17;;;19.30;18.20;;;;;;5078747;28;20460;-63
2022/05/05 06:28:50;;;;;;;34.67;13.43;;;19.00;18.80;;;;;;5072898;28;20464;-63
2022/05/05 06:31:17;;;;;;;39.30;14.87;;;18.70;19.60;;;;;;5071411;28;21114;-63
2022/05/05 06:33:44;;;;;;;34.43;12.43;;;18.40;20.30;;;;;;5071878;28;20485;-61
2022/05/05 06:36:11;;;;;;;36.73;14.90;;;18.20;21.10;;;;;;5072866;28;20478;-63
2022/05/05 06:38:39;;;;;;;36.97;15.33;;;17.90;22.00;;;;;;5070533;28;20469;-61
2022/05/05 06:41:06;;;;;;;39.13;17.30;;;17.70;22.70;;;;;;5068227;28;20493;-63
2022/05/05 06:43:36;;;;;;;41.00;17.07;;;17.50;23.10;;;;;;5070698;28;20457;-63
2022/05/05 06:46:03;;;;;;;44.37;22.03;;;17.30;23.40;;;;;;5070152;28;20472;-62
2022/05/05 06:48:31;;;;;;;50.77;28.27;;;17.20;23.90;;;;;;5071047;28;20471;-61
2022/05/05 06:50:57;;;;;;;49.37;27.27;;;17.00;23.70;;;;;;5070419;28;20874;-62
2022/05/05 06:53:24;;;;;;;46.90;25.17;;;16.90;24.20;;;;;;5070161;28;20492;-63
2022/05/05 06:55:55;;;;;;;50.23;26.30;;;16.80;24.20;;;;;;5069312;28;20468;-60
2022/05/05 06:58:22;;;;;;;50.73;28.70;;;16.80;24.80;;;;;;5069476;28;21341;-61
2022/05/05 07:03:34;;;;;;;45.77;22.37;;;16.60;25.00;;;;;;5072546;28;20509;-62
2022/05/05 07:06:01;;;;;;;46.83;24.50;;;16.50;25.90;;;;;;5068728;28;21093;-60
2022/05/05 07:10:52;;;;;;;45.37;22.77;;;16.40;26.60;;;;;;5071003;28;20587;-60
2022/05/05 07:11:14;;;;;;;44.60;22.30;;;16.40;26.80;;;;;;5070794;28;20480;-61
2022/05/05 07:13:41;;;;;;;42.90;20.10;;;16.30;27.00;;;;;;5070196;28;20709;-61
2022/05/05 07:16:09;;;;;;;42.33;19.30;;;16.30;27.30;;;;;;5067789;28;20214;-60
2022/05/05 07:18:35;;;;;;;41.30;20.00;;;16.20;28.00;;;;;;5064453;28;20958;-61
2022/05/05 07:21:02;;;;;;;40.40;18.27;;;16.20;28.00;;;;;;5067996;28;20465;-62
2022/05/05 07:23:29;;;;;;;39.83;17.20;;;16.20;28.40;;;;;;5067204;28;20473;-63
2022/05/05 07:25:56;;;;;;;39.87;17.50;;;16.10;28.30;;;;;;5071005;28;20460;-65
2022/05/05 07:28:22;;;;;;;40.60;17.83;;;16.10;28.80;;;;;;5070214;28;20458;-63
2022/05/05 07:30:50;;;;;;;38.03;17.60;;;16.10;28.20;;;;;;5074073;28;20696;-61
2022/05/05 07:33:20;;;;;;;41.47;17.80;;;16.20;28.10;;;;;;5071931;28;20516;-65
2022/05/05 07:35:48;;;;;;;43.03;17.13;;;16.30;28.50;;;;;;5073433;28;20563;-64
2022/05/05 07:38:14;;;;;;;40.40;16.93;;;16.40;28.40;;;;;;5075164;28;20475;-63
2022/05/05 07:40:41;;;;;;;36.80;14.40;;;16.60;27.90;;;;;;5075074;28;20477;-61
2022/05/05 07:43:09;;;;;;;37.07;14.10;;;16.80;27.10;;;;;;5077302;28;20457;-63
2022/05/05 07:45:35;;;;;;;36.37;13.77;;;17.00;26.20;;;;;;5072598;28;20956;-60
2022/05/05 07:48:02;;;;;;;38.63;14.13;;;17.00;25.40;;;;;;5074944;28;20525;-62
2022/05/05 07:50:30;;;;;;;37.10;13.87;;;17.00;24.80;;;;;;5073153;28;20482;-61
2022/05/05 07:52:57;;;;;;;40.93;15.27;;;17.10;24.70;;;;;;5069700;28;20477;-61
2022/05/05 07:55:24;;;;;;;36.37;14.23;;;17.20;24.50;;;;;;5072121;28;20472;-66
2022/05/05 07:57:51;;;;;;;37.20;13.93;;;17.30;24.60;;;;;;5069679;28;20583;-66
2022/05/05 08:00:18;;;;;;;36.67;13.97;;;17.50;24.40;;;;;;5072798;28;20490;-67
2022/05/05 08:02:44;;;;;;;36.00;12.70;;;17.70;24.20;;;;;;5074185;28;20457;-63
2022/05/05 08:05:12;;;;;;;35.77;12.50;;;17.80;23.50;;;;;;5070742;28;20915;-61
2022/05/05 08:07:45;;;;;;;35.80;11.70;;;17.80;22.90;;;;;;5070550;28;20522;-63
2022/05/05 08:10:12;;;;;;;34.87;12.00;;;17.80;22.60;;;;;;5079000;28;20556;-63
2022/05/05 08:12:39;;;;;;;35.60;11.90;;;17.90;22.60;;;;;;5074776;28;20483;-63
2022/05/05 08:15:08;;;;;;;34.50;13.37;;;18.20;22.40;;;;;;5071355;28;21288;-62
2022/05/05 08:17:35;;;;;;;34.60;12.50;;;18.50;22.30;;;;;;5069886;28;20930;-62
2022/05/05 08:20:02;;;;;;;33.97;12.17;;;18.80;21.40;;;;;;5067857;28;21026;-61
2022/05/05 08:22:29;;;;;;;34.57;11.97;;;19.20;20.90;;;;;;5071039;28;21303;-62
2022/05/05 08:30:40;;;;;;;33.80;11.03;;;20.40;18.60;;;;;;5019627;28;20493;-64
2022/05/05 08:33:07;;;;;;;35.50;13.30;;;20.80;17.70;;;;;;5044415;28;20504;-59
2022/05/05 08:35:34;;;;;;;34.90;12.40;;;21.10;17.60;;;;;;5072276;28;20472;-65
2022/05/05 08:38:00;;;;;;;34.00;12.90;;;21.30;16.70;;;;;;5072782;28;20484;-65
2022/05/05 08:40:29;;;;;;;35.57;14.17;;;21.30;16.80;;;;;;5072830;28;20492;-62
2022/05/05 08:42:56;;;;;;;33.63;11.73;;;21.20;16.30;;;;;;5072726;28;20467;-60
2022/05/05 08:45:23;;;;;;;33.40;12.97;;;21.20;16.30;;;;;;5071840;28;20460;-64
2022/05/05 08:47:53;;;;;;;36.50;13.10;;;21.90;16.10;;;;;;5066269;28;20461;-63
2022/05/05 08:50:24;;;;;;;34.20;12.43;;;22.60;14.40;;;;;;5073640;28;20484;-63
2022/05/05 08:52:51;;;;;;;33.40;11.83;;;22.90;13.60;;;;;;5075261;28;20454;-64
2022/05/05 08:55:20;;;;;;;33.97;13.33;;;22.90;13.60;;;;;;5076637;28;20453;-61
2022/05/05 08:57:48;;;;;;;33.50;11.93;;;22.80;13.30;;;;;;5069891;28;20461;-61
2022/05/05 09:00:16;;;;;;;35.63;12.87;;;22.60;13.20;;;;;;5072178;28;20467;-62
2022/05/05 09:02:44;;;;;;;35.47;13.50;;;22.40;13.30;;;;;;5071483;28;20510;-62
2022/05/05 09:05:11;;;;;;;35.80;13.30;;;22.30;14.10;;;;;;5074922;28;20457;-58
2022/05/05 09:07:50;;;;;;;36.67;12.60;;;22.20;13.70;;;;;;5071799;28;20549;-59
2022/05/05 09:10:17;;;;;;;33.80;12.30;;;22.20;14.10;;;;;;5067484;28;20479;-59
2022/05/05 09:12:58;;;;;;;34.27;12.20;;;22.30;14.10;;;;;;5074723;28;20511;-58
2022/05/05 09:15:31;;;;;;;36.57;13.20;;;22.40;14.40;;;;;;5070349;28;20837;-59
2022/05/05 09:18:12;;;;;;;35.70;14.27;;;22.50;14.20;;;;;;5071487;28;20465;-58
2022/05/05 09:20:38;;;;;;;36.00;13.30;;;22.70;14.10;;;;;;5076759;28;21093;-58
2022/05/05 09:23:06;;;;;;;34.10;13.47;;;23.00;13.40;;;;;;5071729;28;20467;-58
2022/05/05 09:25:45;;;;;;;33.30;12.83;;;23.50;12.70;;;;;;5076463;28;20467;-59
2022/05/05 09:28:20;;;;;;;36.77;14.13;;;24.00;12.40;;;;;;5076100;28;20471;-59
2022/05/05 09:30:48;;;;;;;37.80;16.80;;;24.30;11.70;;;;;;5074240;28;20480;-58
2022/05/05 09:33:17;;;;;;;35.10;14.97;;;24.40;10.80;;;;;;5078421;28;20484;-59
2022/05/05 09:35:45;;;;;;;35.90;14.77;;;24.40;10.40;;;;;;5081890;28;20509;-59
2022/05/05 09:38:12;;;;;;;35.40;14.63;;;24.20;10.10;;;;;;5077359;28;20468;-59
2022/05/05 09:40:39;;;;;;;33.73;12.93;;;23.90;10.50;;;;;;5076523;28;20499;-58
2022/05/05 09:43:09;;;;;;;37.57;13.87;;;23.60;10.90;;;;;;5074330;28;20460;-59
2022/05/05 09:45:38;;;;;;;33.20;12.97;;;23.40;12.40;;;;;;5080125;28;20460;-59
2022/05/05 09:48:06;;;;;;;35.00;14.27;;;23.30;12.70;;;;;;5079130;28;21036;-59
2022/05/05 09:50:34;;;;;;;35.27;14.73;;;23.20;12.70;;;;;;5078784;28;20483;-59
2022/05/05 09:58:35;;;;;;;36.57;14.87;;;23.00;12.40;;;;;;5075796;28;20487;-63
2022/05/05 10:01:08;;;;;;;34.40;13.40;;;22.90;12.60;;;;;;5072683;28;21077;-61
2022/05/05 10:06:29;;;;;;;34.20;13.30;;;22.80;12.70;;;;;;5074685;28;20451;-61
2022/05/05 10:08:57;;;;;;;35.40;14.63;;;22.80;13.00;;;;;;5074894;28;20477;-63
2022/05/05 10:11:25;;;;;;;34.90;13.43;;;22.90;13.30;;;;;;5072974;28;21018;-60
2022/05/05 10:13:52;;;;;;;35.00;14.30;;;22.90;12.50;;;;;;5072986;28;20542;-62
2022/05/05 10:16:21;;;;;;;33.20;12.93;;;22.80;12.40;;;;;;5071518;28;20846;-60
2022/05/05 10:18:50;;;;;;;35.13;14.37;;;22.80;12.70;;;;;;5070588;28;20572;-60
2022/05/05 10:21:27;;;;;;;36.00;14.47;;;22.80;13.10;;;;;;5070523;28;20463;-61
2022/05/05 10:24:11;;;;;;;35.77;14.53;;;22.80;13.20;;;;;;5071802;28;20468;-59
2022/05/05 10:26:39;;;;;;;40.37;14.80;;;22.80;13.40;;;;;;5073834;28;21207;-61
2022/05/05 10:29:36;;;;;;;34.30;12.80;;;22.70;13.50;;;;;;5068806;28;20487;-60
2022/05/05 10:32:11;;;;;;;33.43;12.73;;;22.70;13.00;;;;;;5068579;28;20485;-59
2022/05/05 10:34:38;;;;;;;34.10;13.50;;;22.60;12.50;;;;;;5072857;28;20507;-59
2022/05/05 10:37:07;;;;;;;38.03;14.67;;;22.70;12.80;;;;;;5072020;28;20467;-58
2022/05/05 10:39:42;;;;;;;35.50;13.83;;;22.70;13.20;;;;;;5074901;28;20488;-58
2022/05/05 10:42:14;;;;;;;34.93;14.63;;;22.70;13.30;;;;;;5072584;28;20859;-59
2022/05/05 10:45:16;;;;;;;34.20;13.13;;;22.70;13.00;;;;;;5074200;28;20460;-59
2022/05/05 10:48:35;;;;;;;34.93;13.37;;;22.80;12.80;;;;;;5068166;28;20475;-59
2022/05/05 10:51:06;;;;;;;34.00;13.97;;;22.90;12.60;;;;;;5070414;28;20456;-59
2022/05/05 10:53:40;;;;;;;35.77;14.17;;;22.90;12.40;;;;;;5070702;28;20839;-59
2022/05/05 10:56:28;;;;;;;34.20;14.17;;;22.90;12.60;;;;;;5071161;28;20473;-59
2022/05/05 10:58:59;;;;;;;34.57;14.47;;;23.00;12.30;;;;;;5071659;28;20512;-63
2022/05/05 11:01:26;;;;;;;34.40;14.03;;;23.10;12.40;;;;;;5069832;28;20472;-61
2022/05/05 11:04:08;;;;;;;34.10;13.67;;;23.10;12.10;;;;;;5070864;28;20985;-63
2022/05/05 11:06:36;;;;;;;33.53;13.00;;;23.30;12.20;;;;;;5073376;28;20507;-60
2022/05/05 11:09:04;;;;;;;33.73;12.97;;;23.60;11.90;;;;;;5072746;28;20570;-60
2022/05/05 11:22:58;;;;;;;36.97;14.50;;;24.90;9.80;;;;;;5071130;28;20476;-61
2022/05/05 11:25:25;;;;;;;33.00;12.10;;;24.80;9.10;;;;;;5070690;28;20459;-61
2022/05/05 11:27:56;;;;;;;34.90;12.83;;;24.80;10.50;;;;;;5074241;28;20456;-62
2022/05/05 11:30:23;;;;;;;32.13;12.00;;;24.80;9.30;;;;;;5074616;28;20921;-65
2022/05/05 11:32:49;;;;;;;33.73;12.10;;;24.90;10.00;;;;;;5074433;28;20465;-62
2022/05/05 11:35:22;;;;;;;32.77;12.67;;;25.00;9.70;;;;;;5076206;28;21035;-64
2022/05/05 11:37:49;;;;;;;32.57;12.17;;;24.90;9.40;;;;;;5072690;28;20464;-62
2022/05/05 11:40:15;;;;;;;31.37;10.77;;;24.80;9.60;;;;;;5072676;28;20499;-62
2022/05/05 11:45:30;;;;;;;30.90;9.57;;;24.90;9.10;;;;;;5073736;28;20826;-60
2022/05/05 11:47:57;;;;;;;31.73;11.10;;;24.80;9.10;;;;;;5072500;28;20465;-58
2022/05/05 11:50:25;;;;;;;31.43;9.50;;;24.80;9.30;;;;;;5074301;28;20485;-60
2022/05/05 11:52:53;;;;;;;30.07;9.27;;;24.70;9.10;;;;;;5073139;28;20468;-60
2022/05/05 11:55:20;;;;;;;31.20;9.27;;;24.60;8.50;;;;;;5072312;28;21016;-60
2022/05/05 11:57:50;;;;;;;29.87;8.80;;;24.50;9.00;;;;;;5072162;28;21021;-60
2022/05/05 12:03:05;;;;;;;30.63;9.17;;;24.40;10.00;;;;;;5071011;28;20838;-60
2022/05/05 12:05:33;;;;;;;32.70;10.13;;;24.40;9.80;;;;;;5072234;28;20834;-61
2022/05/05 12:08:00;;;;;;;30.50;10.10;;;24.30;10.70;;;;;;5072656;28;20468;-61
2022/05/05 12:10:35;;;;;;;30.57;8.80;;;24.30;10.00;;;;;;5073622;28;20481;-61
2022/05/05 12:13:02;;;;;;;31.40;10.10;;;24.10;10.00;;;;;;5073597;28;21000;-62
2022/05/05 12:15:29;;;;;;;30.07;9.70;;;24.00;10.30;;;;;;5073287;28;20511;-61
2022/05/05 12:17:58;;;;;;;32.40;11.53;;;23.90;10.40;;;;;;5069250;28;20472;-61
2022/05/05 12:20:26;;;;;;;31.07;8.83;;;23.80;10.30;;;;;;5074306;28;20487;-62
2022/05/05 12:22:59;;;;;;;32.40;11.30;;;23.70;10.70;;;;;;5072877;28;20958;-64
2022/05/05 12:25:26;;;;;;;30.93;10.13;;;23.70;11.20;;;;;;5066792;28;20472;-63
2022/05/05 12:28:08;;;;;;;33.63;10.03;;;23.70;11.10;;;;;;5070945;28;20474;-62
2022/05/05 12:30:36;;;;;;;30.80;8.87;;;23.60;10.30;;;;;;5071130;28;21133;-64
2022/05/05 12:33:03;;;;;;;31.10;8.83;;;23.60;10.10;;;;;;5072302;28;20468;-65
2022/05/05 12:35:31;;;;;;;31.57;8.37;;;23.40;10.20;;;;;;5071717;28;21019;-62
2022/05/05 12:37:59;;;;;;;31.07;9.27;;;23.30;10.10;;;;;;5068767;28;20468;-62
2022/05/05 12:40:26;;;;;;;31.50;9.17;;;23.20;9.80;;;;;;5072440;28;20477;-65
2022/05/05 12:43:00;;;;;;;31.07;10.20;;;23.10;10.40;;;;;;5071338;28;20457;-66
2022/05/05 12:45:27;;;;;;;30.57;10.10;;;23.10;10.90;;;;;;5070442;28;20452;-64
2022/05/05 12:47:55;;;;;;;30.63;9.07;;;23.10;11.00;;;;;;5068415;28;21180;-68
2022/05/05 12:50:34;;;;;;;28.50;7.30;;;23.10;10.70;;;;;;5070240;28;21022;-62
2022/05/05 13:01:36;;;;;;;29.07;6.83;;;23.70;9.50;;;;;;5070492;28;20518;-63
2022/05/05 13:04:06;;;;;;;30.53;9.00;;;23.70;9.00;;;;;;5068898;28;20454;-62
2022/05/05 13:06:33;;;;;;;28.73;7.30;;;23.70;9.30;;;;;;5070593;28;20488;-60
2022/05/05 13:09:01;;;;;;;30.40;8.50;;;23.80;9.40;;;;;;5069808;28;21013;-61
2022/05/05 13:11:28;;;;;;;29.50;6.77;;;23.90;9.40;;;;;;5071992;28;20958;-60
2022/05/05 13:13:55;;;;;;;30.37;8.07;;;23.90;9.40;;;;;;5071659;28;20462;-63
2022/05/05 13:16:22;;;;;;;29.70;7.47;;;24.00;9.00;;;;;;5069899;28;20465;-63
2022/05/05 13:18:48;;;;;;;30.20;7.70;;;24.10;9.30;;;;;;5070432;28;20460;-62
2022/05/05 13:21:15;;;;;;;31.80;10.13;;;24.20;8.60;;;;;;5072990;28;20456;-63
2022/05/05 13:23:42;;;;;;;31.30;10.70;;;24.30;9.20;;;;;;5070822;28;20457;-62
2022/05/05 13:26:11;;;;;;;32.70;11.00;;;24.30;10.00;;;;;;5070508;28;20460;-62
2022/05/05 13:28:39;;;;;;;31.60;9.97;;;24.20;9.50;;;;;;5071780;28;21943;-62